createdAt,value
2018-01-29T00:01:02.108Z,58.97
2018-01-29T00:03:29.963Z,60.83
2018-01-29T00:05:57.846Z,67.27
2018-01-29T00:08:25.774Z,65.70
2018-01-29T00:10:54.363Z,59.43
2018-01-29T00:13:22.856Z,61.77
2018-01-29T00:15:50.996Z,56.93
2018-01-29T00:18:18.847Z,63.27
2018-01-29T00:20:46.741Z,57.37
2018-01-29T00:23:14.769Z,57.60
2018-01-29T00:25:42.614Z,55.83
2018-01-29T00:28:10.461Z,57.67
2018-01-29T00:30:38.367Z,56.30
2018-01-29T00:33:06.220Z,56.47
2018-01-29T00:35:34.084Z,56.57
2018-01-29T00:38:02.032Z,57.87
2018-01-29T00:40:29.889Z,62.70
2018-01-29T00:42:57.737Z,60.03
2018-01-29T00:45:25.655Z,58.57
2018-01-29T00:47:53.556Z,57.37
2018-01-29T00:50:21.857Z,60.63
2018-01-29T00:52:49.974Z,64.00
2018-01-29T00:55:18.202Z,63.23
2018-01-29T00:57:46.055Z,63.23
2018-01-29T01:00:14.007Z,59.67
2018-01-29T01:02:41.863Z,60.37
2018-01-29T01:05:09.707Z,62.20
2018-01-29T01:07:38.042Z,60.20
2018-01-29T01:10:05.899Z,58.67
2018-01-29T01:12:33.751Z,58.60
2018-01-29T01:15:01.637Z,60.50
2018-01-29T01:17:29.470Z,58.00
2018-01-29T01:19:57.392Z,60.77
2018-01-29T01:22:26.461Z,64.67
2018-01-29T01:24:54.326Z,65.50
2018-01-29T01:27:22.198Z,65.10
2018-01-29T01:29:50.125Z,59.50
2018-01-29T01:32:17.993Z,62.30
2018-01-29T01:34:45.858Z,62.73
2018-01-29T01:37:14.441Z,61.23
2018-01-29T01:39:42.281Z,61.27
2018-01-29T01:42:10.208Z,61.27
2018-01-29T01:44:38.178Z,62.17
2018-01-29T01:47:06.030Z,59.80
2018-01-29T01:49:34.022Z,59.57
2018-01-29T01:52:01.944Z,59.27
2018-01-29T01:54:29.791Z,58.07
2018-01-29T01:56:57.751Z,57.10
2018-01-29T01:59:25.655Z,60.47
2018-01-29T02:01:53.503Z,62.03
2018-01-29T02:04:21.365Z,58.93
2018-01-29T02:06:49.264Z,62.30
2018-01-29T02:09:17.110Z,65.47
2018-01-29T02:11:44.996Z,57.77
2018-01-29T02:14:12.898Z,57.13
2018-01-29T02:16:40.747Z,64.63
2018-01-29T02:19:08.586Z,61.03
2018-01-29T02:21:36.479Z,60.50
2018-01-29T02:24:04.374Z,57.47
2018-01-29T02:26:32.226Z,68.63
2018-01-29T02:29:00.182Z,57.93
2018-01-29T02:31:28.064Z,57.20
2018-01-29T02:33:55.910Z,55.47
2018-01-29T02:36:24.080Z,55.37
2018-01-29T02:38:51.986Z,53.40
2018-01-29T02:41:19.873Z,60.17
2018-01-29T02:43:47.775Z,60.93
2018-01-29T02:46:15.657Z,67.90
2018-01-29T02:48:43.540Z,66.77
2018-01-29T02:51:11.939Z,70.43
2018-01-29T02:53:39.832Z,73.47
2018-01-29T02:56:07.720Z,73.63
2018-01-29T02:58:35.734Z,70.03
2018-01-29T03:01:03.595Z,75.70
2018-01-29T03:03:31.512Z,78.47
2018-01-29T03:05:59.434Z,70.83
2018-01-29T03:08:28.201Z,81.13
2018-01-29T03:10:56.061Z,83.87
2018-01-29T03:13:24.293Z,76.47
2018-01-29T03:15:52.130Z,78.73
2018-01-29T03:18:20.001Z,81.27
2018-01-29T03:20:47.955Z,78.70
2018-01-29T03:23:15.820Z,77.57
2018-01-29T03:25:43.711Z,78.03
2018-01-29T03:28:11.614Z,70.33
2018-01-29T03:30:39.479Z,76.80
2018-01-29T03:33:07.367Z,69.97
2018-01-29T03:35:35.267Z,70.57
2018-01-29T03:38:03.124Z,74.07
2018-01-29T03:40:30.990Z,78.87
2018-01-29T03:42:58.903Z,81.50
2018-01-29T03:45:26.807Z,75.57
2018-01-29T03:47:54.662Z,77.37
2018-01-29T03:50:22.795Z,81.83
2018-01-29T03:52:50.726Z,85.00
2018-01-29T03:55:18.635Z,86.50
2018-01-29T03:57:46.551Z,79.13
2018-01-29T04:00:14.538Z,70.23
2018-01-29T04:02:43.322Z,74.83
2018-01-29T04:05:11.682Z,77.07
2018-01-29T04:07:39.534Z,69.60
2018-01-29T04:10:07.371Z,69.33
2018-01-29T04:12:35.275Z,73.13
2018-01-29T04:15:03.124Z,72.47
2018-01-29T04:17:30.990Z,73.27
2018-01-29T04:19:59.165Z,77.90
2018-01-29T04:22:26.997Z,76.40
2018-01-29T04:24:54.882Z,72.80
2018-01-29T04:27:22.792Z,77.67
2018-01-29T04:29:51.214Z,75.83
2018-01-29T04:32:19.066Z,66.43
2018-01-29T04:34:46.966Z,65.27
2018-01-29T04:37:14.818Z,66.27
2018-01-29T04:39:42.656Z,83.97
2018-01-29T04:42:10.566Z,83.87
2018-01-29T04:44:38.495Z,78.13
2018-01-29T04:47:06.382Z,80.60
2018-01-29T04:49:34.274Z,74.17
2018-01-29T04:52:02.140Z,86.67
2018-01-29T04:54:29.986Z,78.97
2018-01-29T04:56:57.890Z,76.50
2018-01-29T04:59:25.768Z,81.60
2018-01-29T05:01:53.694Z,76.50
2018-01-29T05:04:21.899Z,78.67
2018-01-29T05:06:49.737Z,76.10
2018-01-29T05:09:17.588Z,75.00
2018-01-29T05:11:45.525Z,83.87
2018-01-29T05:14:13.389Z,77.70
2018-01-29T05:16:41.265Z,78.60
2018-01-29T05:19:09.187Z,77.73
2018-01-29T05:21:37.061Z,74.13
2018-01-29T05:24:05.464Z,84.17
2018-01-29T05:26:33.376Z,75.13
2018-01-29T05:29:01.244Z,71.57
2018-01-29T05:31:29.110Z,73.27
2018-01-29T05:33:57.062Z,67.27
2018-01-29T05:36:25.515Z,74.67
2018-01-29T05:38:58.064Z,82.93
2018-01-29T05:41:25.969Z,78.10
2018-01-29T05:43:53.851Z,81.40
2018-01-29T05:46:22.290Z,79.20
2018-01-29T05:48:50.192Z,85.00
2018-01-29T05:51:18.095Z,94.47
2018-01-29T05:53:46.047Z,78.97
2018-01-29T05:56:13.908Z,79.07
2018-01-29T05:58:41.789Z,77.33
2018-01-29T06:01:09.716Z,82.50
2018-01-29T06:03:37.662Z,88.27
2018-01-29T06:06:05.522Z,84.73
2018-01-29T06:08:33.399Z,89.30
2018-01-29T06:11:01.295Z,103.43
2018-01-29T06:13:29.163Z,120.07
2018-01-29T06:15:57.080Z,110.37
2018-01-29T06:18:24.947Z,131.47
2018-01-29T06:20:55.716Z,108.50
2018-01-29T06:23:23.658Z,115.83
2018-01-29T06:25:51.524Z,114.37
2018-01-29T06:28:19.722Z,110.43
2018-01-29T06:30:47.624Z,102.73
2018-01-29T06:33:15.491Z,104.43
2018-01-29T06:35:43.327Z,108.30
2018-01-29T06:38:11.502Z,116.03
2018-01-29T06:40:39.408Z,105.93
2018-01-29T06:43:07.255Z,105.40
2018-01-29T06:45:35.161Z,102.73
2018-01-29T06:48:03.007Z,108.87
2018-01-29T06:50:30.844Z,111.27
2018-01-29T06:52:58.823Z,103.03
2018-01-29T06:55:26.691Z,105.90
2018-01-29T06:57:54.555Z,99.90
2018-01-29T07:00:23.358Z,106.03
2018-01-29T07:02:51.225Z,100.67
2018-01-29T07:05:19.576Z,100.73
2018-01-29T07:07:47.795Z,100.07
2018-01-29T07:10:15.714Z,93.23
2018-01-29T07:12:43.560Z,96.40
2018-01-29T07:15:11.470Z,93.00
2018-01-29T07:17:39.342Z,91.23
2018-01-29T07:20:07.223Z,101.70
2018-01-29T07:22:35.115Z,101.13
2018-01-29T07:25:02.958Z,100.03
2018-01-29T07:27:30.871Z,108.67
2018-01-29T07:29:58.799Z,104.83
2018-01-29T07:32:26.642Z,98.13
2018-01-29T07:34:54.481Z,92.20
2018-01-29T07:37:22.442Z,95.57
2018-01-29T07:39:50.324Z,90.23
2018-01-29T07:42:18.201Z,90.93
2018-01-29T07:44:46.138Z,97.37
2018-01-29T07:47:14.002Z,96.70
2018-01-29T07:49:41.893Z,109.17
2018-01-29T07:52:09.811Z,113.07
2018-01-29T07:54:38.427Z,114.60
2018-01-29T07:57:07.249Z,118.23
2018-01-29T07:59:35.741Z,133.13
2018-01-29T08:02:04.423Z,148.07
2018-01-29T08:04:33.554Z,153.23
2018-01-29T08:07:01.561Z,152.00
2018-01-29T08:09:29.433Z,161.50
2018-01-29T08:11:57.319Z,170.33
2018-01-29T08:14:25.230Z,157.47
2018-01-29T08:16:53.109Z,181.30
2018-01-29T08:19:20.986Z,172.00
2018-01-29T08:21:48.898Z,163.50
2018-01-29T08:24:16.753Z,153.83
2018-01-29T08:26:45.035Z,150.37
2018-01-29T08:29:12.938Z,141.57
2018-01-29T08:31:40.852Z,134.77
2018-01-29T08:34:08.718Z,133.27
2018-01-29T08:36:36.823Z,121.00
2018-01-29T08:39:04.792Z,130.50
2018-01-29T08:41:32.715Z,134.27
2018-01-29T08:44:00.711Z,119.10
2018-01-29T08:46:28.562Z,123.87
2018-01-29T08:48:56.441Z,119.33
2018-01-29T08:51:24.393Z,109.33
2018-01-29T08:53:52.259Z,102.93
2018-01-29T08:56:20.116Z,104.80
2018-01-29T08:58:48.061Z,94.00
2018-01-29T09:01:15.925Z,98.40
2018-01-29T09:03:43.778Z,99.10
2018-01-29T09:06:11.994Z,93.63
2018-01-29T09:08:39.887Z,98.97
2018-01-29T09:11:08.273Z,92.10
2018-01-29T09:13:36.227Z,93.43
2018-01-29T09:16:04.102Z,91.60
2018-01-29T09:18:31.967Z,92.43
2018-01-29T09:20:59.864Z,88.40
2018-01-29T09:23:27.719Z,87.67
2018-01-29T09:25:55.567Z,81.17
2018-01-29T09:28:23.495Z,82.87
2018-01-29T09:30:51.369Z,87.70
2018-01-29T09:33:19.321Z,81.73
2018-01-29T09:35:47.351Z,84.20
2018-01-29T09:38:15.306Z,83.33
2018-01-29T09:40:43.195Z,83.53
2018-01-29T09:43:11.115Z,83.43
2018-01-29T09:45:38.984Z,75.20
2018-01-29T09:48:07.431Z,74.93
2018-01-29T09:50:35.388Z,80.13
2018-01-29T09:53:03.257Z,78.77
2018-01-29T09:55:31.155Z,88.63
2018-01-29T09:57:59.096Z,83.20
2018-01-29T10:00:27.028Z,91.40
2018-01-29T10:02:54.973Z,83.70
2018-01-29T10:05:22.959Z,76.07
2018-01-29T10:07:50.868Z,74.20
2018-01-29T10:10:19.203Z,75.13
2018-01-29T10:12:47.483Z,72.97
2018-01-29T10:15:15.366Z,83.27
2018-01-29T10:17:43.258Z,73.57
2018-01-29T10:20:11.207Z,70.97
2018-01-29T10:22:39.062Z,69.30
2018-01-29T10:25:06.907Z,69.73
2018-01-29T10:27:34.833Z,68.40
2018-01-29T10:30:02.707Z,68.27
2018-01-29T10:32:30.713Z,71.13
2018-01-29T10:34:58.649Z,69.97
2018-01-29T10:37:26.529Z,68.43
2018-01-29T10:39:54.383Z,83.23
2018-01-29T10:42:22.349Z,68.30
2018-01-29T10:44:50.226Z,69.17
2018-01-29T10:47:18.064Z,70.40
2018-01-29T10:49:45.961Z,71.27
2018-01-29T10:52:14.325Z,71.87
2018-01-29T10:54:42.175Z,79.13
2018-01-29T10:57:10.067Z,76.10
2018-01-29T10:59:37.986Z,73.60
2018-01-29T11:02:05.866Z,69.37
2018-01-29T11:04:35.013Z,63.17
2018-01-29T11:07:02.891Z,64.63
2018-01-29T11:09:30.841Z,65.73
2018-01-29T11:11:59.897Z,59.57
2018-01-29T11:14:28.144Z,64.73
2018-01-29T11:16:56.008Z,60.80
2018-01-29T11:19:23.984Z,57.87
2018-01-29T11:21:51.904Z,61.20
2018-01-29T11:24:20.250Z,58.47
2018-01-29T11:26:49.214Z,59.87
2018-01-29T11:29:17.096Z,57.50
2018-01-29T11:31:44.987Z,56.10
2018-01-29T11:34:18.228Z,55.53
2018-01-29T11:36:46.648Z,55.87
2018-01-29T11:39:15.264Z,54.97
2018-01-29T11:41:43.909Z,57.10
2018-01-29T11:44:11.806Z,53.50
2018-01-29T11:46:40.498Z,52.10
2018-01-29T11:49:08.892Z,52.50
2018-01-29T11:51:39.756Z,47.97
2018-01-29T11:54:08.731Z,44.87
2018-01-29T11:56:37.814Z,52.57
2018-01-29T11:59:06.000Z,54.77
2018-01-29T12:01:34.489Z,58.70
2018-01-29T12:04:02.407Z,59.93
2018-01-29T12:06:30.303Z,56.50
2018-01-29T12:08:58.331Z,56.77
2018-01-29T12:11:26.501Z,54.33
2018-01-29T12:13:54.519Z,54.30
2018-01-29T12:16:22.446Z,50.63
2018-01-29T12:18:50.464Z,42.67
2018-01-29T12:21:18.311Z,46.80
2018-01-29T12:23:46.281Z,44.37
2018-01-29T12:26:14.256Z,41.70
2018-01-29T12:28:42.185Z,41.20
2018-01-29T12:31:10.114Z,40.27
2018-01-29T12:33:38.066Z,39.47
2018-01-29T12:36:05.958Z,37.00
2018-01-29T12:38:34.585Z,38.95
2018-01-29T12:41:02.535Z,39.88
2018-01-29T12:43:30.507Z,39.58
2018-01-29T12:45:59.661Z,41.35
2018-01-29T12:48:27.694Z,42.80
2018-01-29T12:50:55.640Z,41.58
2018-01-29T12:53:23.741Z,41.03
2018-01-29T12:55:51.766Z,40.72
2018-01-29T12:58:20.007Z,41.60
2018-01-29T13:00:48.298Z,43.67
2018-01-29T13:03:16.203Z,44.33
2018-01-29T13:05:44.096Z,43.83
2018-01-29T13:08:11.958Z,45.75
2018-01-29T13:10:39.932Z,49.10
2018-01-29T13:13:08.407Z,46.43
2018-01-29T13:15:36.570Z,46.63
2018-01-29T13:18:04.539Z,43.73
2018-01-29T13:20:32.437Z,42.67
2018-01-29T13:23:00.524Z,46.57
2018-01-29T13:25:28.692Z,44.93
2018-01-29T13:27:56.540Z,44.97
2018-01-29T13:30:24.454Z,43.08
2018-01-29T13:32:52.448Z,42.05
2018-01-29T13:35:20.488Z,45.30
2018-01-29T13:37:48.350Z,47.35
2018-01-29T13:40:16.250Z,50.30
2018-01-29T13:42:44.134Z,49.33
2018-01-29T13:45:12.154Z,45.90
2018-01-29T13:47:40.074Z,46.00
2018-01-29T13:50:07.938Z,39.17
2018-01-29T13:52:35.787Z,40.25
2018-01-29T13:55:03.732Z,36.15
2018-01-29T13:57:31.608Z,32.85
2018-01-29T13:59:59.476Z,30.65
2018-01-29T14:02:27.384Z,52.17
2018-01-29T14:04:55.311Z,54.80
2018-01-29T14:07:23.230Z,63.33
2018-01-29T14:09:51.251Z,53.53
2018-01-29T14:12:19.340Z,49.83
2018-01-29T14:14:47.528Z,60.87
2018-01-29T14:17:15.869Z,54.40
2018-01-29T14:19:44.809Z,59.83
2018-01-29T14:22:12.868Z,55.47
2018-01-29T14:24:41.677Z,43.93
2018-01-29T14:27:10.070Z,48.37
2018-01-29T14:29:38.314Z,9.63
2018-01-29T14:32:06.642Z,4.53
2018-01-29T14:34:35.094Z,2.60
2018-01-29T14:37:03.687Z,4.60
2018-01-29T14:39:31.788Z,2.23
2018-01-29T14:42:00.318Z,9.27
2018-01-29T14:44:28.541Z,2.27
2018-01-29T14:46:56.771Z,3.87
2018-01-29T14:49:24.901Z,3.53
2018-01-29T14:51:53.158Z,11.07
2018-01-29T14:54:21.516Z,4.57
2018-01-29T14:56:49.614Z,4.30
2018-01-29T14:59:17.719Z,4.73
2018-01-29T15:01:45.721Z,6.20
2018-01-29T15:04:13.730Z,2.10
2018-01-29T15:06:42.336Z,10.03
2018-01-29T15:09:10.337Z,5.20
2018-01-29T15:11:38.400Z,4.63
2018-01-29T15:14:06.958Z,4.67
2018-01-29T15:16:35.140Z,3.00
2018-01-29T15:19:03.168Z,4.10
2018-01-29T15:21:31.072Z,3.53
2018-01-29T15:24:00.036Z,2.63
2018-01-29T15:26:29.114Z,2.60
2018-01-29T15:28:57.255Z,7.10
2018-01-29T15:31:25.393Z,4.17
2018-01-29T15:33:55.542Z,2.47
2018-01-29T15:36:24.506Z,4.77
2018-01-29T15:38:53.750Z,3.33
2018-01-29T15:41:22.943Z,4.30
2018-01-29T15:43:51.950Z,5.03
2018-01-29T15:46:21.221Z,17.37
2018-01-29T15:48:50.331Z,3.53
2018-01-29T15:51:19.747Z,3.47
2018-01-29T15:53:47.757Z,4.77
2018-01-29T15:56:15.805Z,4.03
2018-01-29T15:58:43.893Z,4.77
2018-01-29T16:01:11.916Z,2.43
2018-01-29T16:03:39.895Z,3.57
2018-01-29T16:06:07.913Z,2.87
2018-01-29T16:08:35.915Z,3.93
2018-01-29T16:11:03.899Z,8.20
2018-01-29T16:13:31.788Z,5.37
2018-01-29T16:15:59.765Z,4.47
2018-01-29T16:18:27.661Z,4.67
2018-01-29T16:20:55.921Z,8.90
2018-01-29T16:23:23.925Z,40.77
2018-01-29T16:25:51.868Z,54.37
2018-01-29T16:28:19.791Z,53.27
2018-01-29T16:30:47.697Z,52.20
2018-01-29T16:33:15.668Z,53.73
2018-01-29T16:35:43.544Z,55.83
2018-01-29T16:38:11.546Z,55.23
2018-01-29T16:40:39.379Z,62.77
2018-01-29T16:43:07.458Z,54.60
2018-01-29T16:45:35.467Z,59.27
2018-01-29T16:48:03.337Z,91.20
2018-01-29T16:50:31.363Z,63.70
2018-01-29T16:52:59.832Z,62.27
2018-01-29T16:55:28.043Z,50.33
2018-01-29T16:57:55.963Z,47.97
2018-01-29T17:00:24.085Z,45.70
2018-01-29T17:02:52.234Z,38.50
2018-01-29T17:05:20.307Z,37.60
2018-01-29T17:07:48.353Z,47.93
2018-01-29T17:10:16.398Z,35.70
2018-01-29T17:12:44.379Z,35.10
2018-01-29T17:15:12.427Z,41.60
2018-01-29T17:17:40.384Z,44.40
2018-01-29T17:20:08.406Z,34.63
2018-01-29T17:22:36.622Z,31.30
2018-01-29T17:25:04.641Z,30.73
2018-01-29T17:27:32.642Z,39.97
2018-01-29T17:30:00.617Z,29.03
2018-01-29T17:32:28.611Z,32.53
2018-01-29T17:34:56.675Z,31.60
2018-01-29T17:37:24.690Z,30.80
2018-01-29T17:39:52.664Z,33.53
2018-01-29T17:42:20.659Z,34.13
2018-01-29T17:44:48.637Z,31.30
2018-01-29T17:47:16.630Z,30.83
2018-01-29T17:49:44.568Z,33.00
2018-01-29T17:52:12.642Z,31.77
2018-01-29T17:54:40.574Z,35.90
2018-01-29T17:57:08.427Z,40.67
2018-01-29T17:59:36.372Z,34.47
2018-01-29T18:02:04.262Z,34.17
2018-01-29T18:04:32.119Z,36.27
2018-01-29T18:07:00.030Z,38.70
2018-01-29T18:09:27.963Z,35.23
2018-01-29T18:11:55.807Z,33.77
2018-01-29T18:14:23.715Z,32.00
2018-01-29T18:16:51.547Z,30.83
2018-01-29T18:19:19.390Z,30.57
2018-01-29T18:21:47.278Z,25.93
2018-01-29T18:24:15.266Z,26.73
2018-01-29T18:26:43.127Z,26.63
2018-01-29T18:29:11.012Z,23.13
2018-01-29T18:31:39.378Z,22.90
2018-01-29T18:34:09.282Z,22.93
2018-01-29T18:36:37.199Z,22.90
2018-01-29T18:39:05.106Z,23.93
2018-01-29T18:41:32.956Z,22.67
2018-01-29T18:44:00.843Z,22.47
2018-01-29T18:46:28.732Z,23.47
2018-01-29T18:48:56.646Z,26.00
2018-01-29T18:51:24.783Z,22.07
2018-01-29T18:53:52.678Z,26.97
2018-01-29T18:56:20.521Z,44.87
2018-01-29T18:58:48.397Z,54.70
2018-01-29T19:01:16.227Z,60.93
2018-01-29T19:03:44.066Z,59.90
2018-01-29T19:06:11.969Z,62.53
2018-01-29T19:08:39.892Z,78.40
2018-01-29T19:11:07.730Z,71.57
2018-01-29T19:13:35.647Z,73.60
2018-01-29T19:16:03.522Z,71.73
2018-01-29T19:18:31.415Z,67.10
2018-01-29T19:20:59.421Z,67.43
2018-01-29T19:23:27.250Z,69.87
2018-01-29T19:25:55.422Z,73.00
2018-01-29T19:28:23.407Z,80.50
2018-01-29T19:30:51.260Z,92.37
2018-01-29T19:33:21.249Z,96.10
2018-01-29T19:35:49.150Z,110.93
2018-01-29T19:38:17.007Z,103.33
2018-01-29T19:40:44.876Z,96.33
2018-01-29T19:43:12.784Z,99.60
2018-01-29T19:45:40.650Z,98.90
2018-01-29T19:48:08.495Z,95.30
2018-01-29T19:50:36.394Z,100.17
2018-01-29T19:53:04.263Z,91.53
2018-01-29T19:55:32.122Z,84.67
2018-01-29T19:58:00.035Z,81.00
2018-01-29T20:00:27.906Z,80.63
2018-01-29T20:02:55.747Z,75.27
2018-01-29T20:05:23.654Z,69.53
2018-01-29T20:07:51.580Z,66.10
2018-01-29T20:10:19.442Z,61.60
2018-01-29T20:12:47.374Z,72.30
2018-01-29T20:15:15.296Z,124.33
2018-01-29T20:17:43.127Z,73.53
2018-01-29T20:20:11.059Z,72.77
2018-01-29T20:22:38.899Z,69.00
2018-01-29T20:25:06.738Z,63.03
2018-01-29T20:27:34.758Z,69.60
2018-01-29T20:30:02.587Z,53.23
2018-01-29T20:32:30.431Z,48.10
2018-01-29T20:34:59.482Z,48.03
2018-01-29T20:37:27.331Z,56.20
2018-01-29T20:39:55.168Z,47.60
2018-01-29T20:42:23.081Z,49.80
2018-01-29T20:44:50.979Z,52.57
2018-01-29T20:47:18.818Z,56.60
2018-01-29T20:49:46.702Z,57.33
2018-01-29T20:52:14.569Z,53.27
2018-01-29T20:54:42.461Z,57.43
2018-01-29T20:57:10.353Z,50.23
2018-01-29T20:59:38.208Z,46.77
2018-01-29T21:02:06.053Z,46.20
2018-01-29T21:04:34.002Z,44.77
2018-01-29T21:07:01.838Z,47.57
2018-01-29T21:09:30.215Z,48.23
2018-01-29T21:11:58.115Z,41.60
2018-01-29T21:14:25.961Z,40.80
2018-01-29T21:16:53.799Z,39.60
2018-01-29T21:19:22.102Z,39.13
2018-01-29T21:21:49.959Z,42.30
2018-01-29T21:24:17.795Z,37.40
2018-01-29T21:26:45.714Z,40.10
2018-01-29T21:29:13.634Z,39.10
2018-01-29T21:31:41.475Z,36.53
2018-01-29T21:34:09.385Z,34.80
2018-01-29T21:36:37.222Z,32.00
2018-01-29T21:39:05.127Z,32.80
2018-01-29T21:41:33.059Z,31.37
2018-01-29T21:44:00.894Z,32.50
2018-01-29T21:46:28.744Z,32.00
2018-01-29T21:48:56.657Z,35.00
2018-01-29T21:51:24.565Z,34.47
2018-01-29T21:53:52.410Z,31.90
2018-01-29T21:56:20.533Z,32.23
2018-01-29T21:58:48.455Z,34.07
2018-01-29T22:01:16.412Z,29.70
2018-01-29T22:03:44.479Z,32.13
2018-01-29T22:06:12.321Z,35.33
2018-01-29T22:08:40.175Z,32.27
2018-01-29T22:11:08.112Z,33.00
2018-01-29T22:13:35.959Z,31.10
2018-01-29T22:16:03.834Z,29.83
2018-01-29T22:18:31.742Z,31.03
2018-01-29T22:20:59.570Z,28.17
2018-01-29T22:23:27.408Z,31.23
2018-01-29T22:25:55.338Z,28.73
2018-01-29T22:28:23.187Z,33.20
2018-01-29T22:30:51.708Z,29.63
2018-01-29T22:33:19.962Z,29.03
2018-01-29T22:35:47.807Z,27.23
2018-01-29T22:38:15.638Z,29.13
2018-01-29T22:40:43.534Z,28.03
2018-01-29T22:43:11.373Z,27.37
2018-01-29T22:45:39.210Z,28.07
2018-01-29T22:48:07.095Z,28.80
2018-01-29T22:50:34.922Z,27.87
2018-01-29T22:53:02.772Z,30.30
2018-01-29T22:55:30.669Z,28.97
2018-01-29T22:57:58.615Z,33.93
2018-01-29T23:00:26.445Z,30.03
2018-01-29T23:02:54.399Z,32.03
2018-01-29T23:05:22.223Z,32.03
2018-01-29T23:07:50.086Z,33.67
2018-01-29T23:10:17.996Z,37.77
2018-01-29T23:12:45.826Z,52.40
2018-01-29T23:15:13.698Z,78.57
2018-01-29T23:17:41.631Z,80.20
2018-01-29T23:20:09.556Z,57.50
2018-01-29T23:22:37.387Z,54.43
2018-01-29T23:25:05.662Z,43.20
2018-01-29T23:27:33.507Z,40.07
2018-01-29T23:30:01.343Z,37.97
2018-01-29T23:32:29.358Z,36.07
2018-01-29T23:34:57.213Z,32.00
2018-01-29T23:37:25.051Z,32.97
2018-01-29T23:39:52.938Z,30.83
2018-01-29T23:42:20.774Z,31.20
2018-01-29T23:44:48.639Z,30.87
2018-01-29T23:47:16.523Z,34.83
2018-01-29T23:49:44.373Z,33.10
2018-01-29T23:52:12.198Z,28.73
2018-01-29T23:54:40.086Z,34.00
2018-01-29T23:57:07.918Z,34.17
2018-01-29T23:59:35.758Z,30.27
